createdAt,value
2022-11-21T00:00:15.404Z,2.23
2022-11-21T00:01:15.427Z,2.25
2022-11-21T00:02:15.449Z,2.26
2022-11-21T00:03:15.373Z,2.25
2022-11-21T00:04:15.375Z,2.26
2022-11-21T00:05:15.363Z,2.21
2022-11-21T00:06:15.348Z,2.28
2022-11-21T00:07:15.388Z,2.26
2022-11-21T00:08:15.348Z,2.25
2022-11-21T00:09:15.313Z,2.25
2022-11-21T00:10:15.310Z,2.25
2022-11-21T00:11:15.283Z,2.21
2022-11-21T00:12:15.292Z,2.25
2022-11-21T00:13:15.276Z,2.23
2022-11-21T00:14:15.273Z,2.25
2022-11-21T00:15:15.260Z,2.22
2022-11-21T00:16:15.242Z,2.23
2022-11-21T00:17:15.243Z,2.25
2022-11-21T00:18:15.232Z,2.23
2022-11-21T00:19:15.212Z,2.23
2022-11-21T00:20:15.200Z,2.22
2022-11-21T00:21:15.197Z,2.19
2022-11-21T00:22:15.195Z,2.22
2022-11-21T00:23:15.180Z,2.21
2022-11-21T00:24:15.171Z,2.22
2022-11-21T00:25:15.151Z,2.23
2022-11-21T00:26:15.173Z,2.22
2022-11-21T00:27:15.146Z,2.19
2022-11-21T00:28:15.120Z,2.19
2022-11-21T00:29:15.101Z,2.18
2022-11-21T00:30:15.098Z,2.22
2022-11-21T00:31:15.110Z,2.22
2022-11-21T00:32:15.109Z,2.25
2022-11-21T00:33:15.069Z,2.22
2022-11-21T00:34:15.058Z,2.22
2022-11-21T00:35:15.049Z,2.22
2022-11-21T00:36:15.041Z,2.23
2022-11-21T00:37:15.057Z,2.22
2022-11-21T00:38:15.008Z,2.23
2022-11-21T00:39:14.999Z,2.21
2022-11-21T00:40:14.998Z,2.22
2022-11-21T00:41:14.995Z,2.22
2022-11-21T00:42:14.986Z,2.22
2022-11-21T00:43:14.986Z,2.23
2022-11-21T00:44:15.007Z,2.23
2022-11-21T00:45:18.378Z,2.23
2022-11-21T00:46:15.925Z,2.22
2022-11-21T00:47:14.936Z,2.23
2022-11-21T00:48:14.906Z,2.25
2022-11-21T00:49:14.910Z,2.23
2022-11-21T00:50:14.879Z,2.28
2022-11-21T00:51:14.881Z,2.23
2022-11-21T00:52:14.878Z,2.28
2022-11-21T00:53:14.872Z,2.26
2022-11-21T00:54:14.838Z,2.22
2022-11-21T00:55:14.870Z,2.23
2022-11-21T00:56:14.836Z,2.21
2022-11-21T00:57:14.824Z,2.22
2022-11-21T00:58:14.793Z,2.22
2022-11-21T00:59:14.804Z,2.22
2022-11-21T01:00:14.764Z,2.22
2022-11-21T01:01:14.851Z,2.21
2022-11-21T01:02:14.774Z,2.19
2022-11-21T01:03:14.754Z,2.19
2022-11-21T01:04:14.743Z,2.21
2022-11-21T01:05:14.723Z,2.22
2022-11-21T01:06:14.712Z,2.21
2022-11-21T01:07:14.758Z,2.22
2022-11-21T01:08:14.683Z,2.22
2022-11-21T01:09:14.682Z,2.22
2022-11-21T01:10:14.683Z,2.23
2022-11-21T01:11:14.672Z,2.22
2022-11-21T01:12:14.672Z,2.25
2022-11-21T01:13:14.661Z,2.23
2022-11-21T01:14:14.639Z,2.23
2022-11-21T01:15:14.731Z,2.21
2022-11-21T01:16:14.632Z,2.23
2022-11-21T01:17:14.593Z,2.21
2022-11-21T01:18:14.649Z,2.22
2022-11-21T01:19:14.641Z,2.22
2022-11-21T01:20:14.569Z,2.23
2022-11-21T01:21:14.549Z,2.22
2022-11-21T01:22:14.550Z,2.25
2022-11-21T01:23:14.555Z,2.23
2022-11-21T01:24:14.523Z,2.23
2022-11-21T01:25:14.518Z,2.22
2022-11-21T01:26:14.500Z,2.23
2022-11-21T01:27:14.576Z,2.22
2022-11-21T01:28:14.489Z,2.25
2022-11-21T01:29:14.493Z,2.22
2022-11-21T01:30:14.449Z,2.25
2022-11-21T01:31:14.443Z,2.22
2022-11-21T01:32:14.536Z,2.23
2022-11-21T01:33:14.429Z,2.22
2022-11-21T01:34:14.422Z,2.23
2022-11-21T01:35:14.471Z,2.23
2022-11-21T01:36:14.400Z,2.22
2022-11-21T01:37:14.421Z,2.23
2022-11-21T01:38:14.520Z,2.23
2022-11-21T01:39:14.368Z,2.22
2022-11-21T01:40:14.348Z,2.23
2022-11-21T01:41:14.394Z,2.23
2022-11-21T01:42:14.330Z,2.22
2022-11-21T01:43:14.317Z,2.22
2022-11-21T01:44:14.304Z,2.25
2022-11-21T01:45:14.374Z,2.22
2022-11-21T01:46:14.298Z,2.19
2022-11-21T01:47:14.287Z,2.23
2022-11-21T01:48:14.278Z,2.22
2022-11-21T01:49:14.257Z,2.21
2022-11-21T01:50:14.245Z,2.23
2022-11-21T01:51:14.236Z,2.22
2022-11-21T01:52:14.223Z,2.22
2022-11-21T01:53:14.230Z,2.22
2022-11-21T01:54:14.207Z,2.19
2022-11-21T01:55:14.196Z,2.22
2022-11-21T01:56:14.181Z,2.23
2022-11-21T01:57:14.209Z,2.21
2022-11-21T01:58:14.192Z,2.23
2022-11-21T01:59:14.170Z,2.23
2022-11-21T02:00:14.146Z,2.21
2022-11-21T02:01:14.274Z,2.23
2022-11-21T02:02:14.124Z,2.19
2022-11-21T02:03:14.140Z,2.22
2022-11-21T02:04:14.090Z,2.22
2022-11-21T02:05:14.088Z,2.23
2022-11-21T02:06:14.074Z,2.21
2022-11-21T02:07:14.148Z,2.21
2022-11-21T02:08:14.065Z,2.23
2022-11-21T02:09:14.098Z,2.21
2022-11-21T02:10:14.029Z,2.22
2022-11-21T02:11:14.026Z,2.21
2022-11-21T02:12:14.004Z,2.19
2022-11-21T02:13:14.012Z,2.16
2022-11-21T02:14:13.984Z,2.21
2022-11-21T02:15:13.974Z,2.19
2022-11-21T02:16:13.963Z,2.22
2022-11-21T02:17:13.969Z,2.19
2022-11-21T02:18:13.963Z,2.22
2022-11-21T02:19:13.936Z,2.22
2022-11-21T02:20:13.922Z,2.22
2022-11-21T02:21:13.949Z,2.21
2022-11-21T02:22:13.903Z,2.23
2022-11-21T02:23:13.901Z,2.22
2022-11-21T02:24:13.894Z,2.21
2022-11-21T02:25:13.872Z,2.19
2022-11-21T02:26:13.870Z,2.21
2022-11-21T02:27:13.868Z,2.19
2022-11-21T02:28:13.879Z,2.22
2022-11-21T02:29:13.840Z,2.21
2022-11-21T02:30:13.849Z,2.21
2022-11-21T02:31:13.851Z,2.21
2022-11-21T02:32:13.833Z,2.26
2022-11-21T02:33:13.799Z,2.21
2022-11-21T02:34:13.785Z,2.19
2022-11-21T02:35:13.797Z,2.21
2022-11-21T02:36:13.756Z,2.21
2022-11-21T02:37:13.758Z,2.22
2022-11-21T02:38:13.755Z,2.23
2022-11-21T02:39:13.728Z,2.19
2022-11-21T02:40:13.710Z,2.22
2022-11-21T02:41:13.729Z,2.19
2022-11-21T02:42:13.697Z,2.21
2022-11-21T02:43:13.708Z,2.23
2022-11-21T02:44:13.687Z,2.19
2022-11-21T02:45:13.667Z,2.22
2022-11-21T02:46:13.666Z,2.21
2022-11-21T02:47:13.658Z,2.22
2022-11-21T02:48:13.628Z,2.22
2022-11-21T02:49:13.626Z,2.22
2022-11-21T02:50:13.618Z,2.25
2022-11-21T02:51:13.625Z,2.21
2022-11-21T02:52:13.585Z,2.23
2022-11-21T02:53:13.595Z,2.25
2022-11-21T02:54:13.562Z,2.23
2022-11-21T02:55:13.564Z,2.22
2022-11-21T02:56:13.548Z,2.25
2022-11-21T02:57:13.541Z,2.25
2022-11-21T02:58:13.530Z,2.23
2022-11-21T02:59:13.524Z,2.22
2022-11-21T03:00:13.510Z,2.21
2022-11-21T03:01:13.555Z,2.19
2022-11-21T03:02:13.477Z,2.22
2022-11-21T03:03:13.472Z,2.22
2022-11-21T03:04:13.474Z,2.21
2022-11-21T03:05:13.465Z,2.22
2022-11-21T03:06:13.475Z,2.21
2022-11-21T03:07:13.472Z,2.23
2022-11-21T03:08:13.423Z,2.22
2022-11-21T03:09:13.412Z,2.22
2022-11-21T03:10:13.393Z,2.25
2022-11-21T03:11:13.397Z,2.23
2022-11-21T03:12:13.372Z,2.23
2022-11-21T03:13:13.385Z,2.25
2022-11-21T03:14:13.354Z,2.23
2022-11-21T03:15:13.355Z,2.23
2022-11-21T03:16:13.330Z,2.23
2022-11-21T03:17:13.365Z,2.23
2022-11-21T03:18:13.339Z,2.22
2022-11-21T03:19:13.380Z,2.23
2022-11-21T03:20:13.427Z,2.21
2022-11-21T03:21:13.292Z,2.22
2022-11-21T03:22:13.275Z,2.21
2022-11-21T03:23:13.260Z,2.25
2022-11-21T03:24:13.285Z,2.23
2022-11-21T03:25:13.240Z,2.23
2022-11-21T03:26:13.250Z,2.23
2022-11-21T03:27:13.227Z,2.23
2022-11-21T03:28:13.218Z,2.22
2022-11-21T03:29:13.264Z,2.19
2022-11-21T03:30:13.179Z,2.22
2022-11-21T03:31:13.189Z,2.19
2022-11-21T03:32:13.159Z,2.22
2022-11-21T03:33:13.148Z,2.19
2022-11-21T03:34:13.150Z,2.21
2022-11-21T03:35:13.139Z,2.21
2022-11-21T03:36:13.111Z,2.19
2022-11-21T03:37:13.144Z,2.21
2022-11-21T03:38:13.089Z,2.18
2022-11-21T03:39:13.107Z,2.18
2022-11-21T03:40:13.069Z,2.18
2022-11-21T03:41:13.092Z,2.15
2022-11-21T03:42:13.050Z,2.18
2022-11-21T03:43:13.050Z,2.16
2022-11-21T03:44:13.049Z,2.16
2022-11-21T03:45:13.057Z,2.18
2022-11-21T03:46:13.028Z,2.14
2022-11-21T03:47:13.006Z,2.16
2022-11-21T03:48:12.993Z,2.14
2022-11-21T03:49:12.997Z,2.14
2022-11-21T03:50:12.977Z,2.16
2022-11-21T03:51:12.959Z,2.15
2022-11-21T03:52:12.958Z,2.14
2022-11-21T03:53:12.956Z,2.14
2022-11-21T03:54:12.956Z,2.14
2022-11-21T03:55:12.926Z,2.12
2022-11-21T03:56:12.915Z,2.14
2022-11-21T03:57:12.905Z,2.12
2022-11-21T03:58:12.885Z,2.14
2022-11-21T03:59:12.877Z,2.10
2022-11-21T04:00:12.864Z,2.12
2022-11-21T04:01:12.914Z,2.08
2022-11-21T04:02:12.847Z,2.08
2022-11-21T04:03:12.844Z,2.08
2022-11-21T04:04:12.835Z,2.05
2022-11-21T04:05:12.822Z,2.05
2022-11-21T04:06:12.793Z,2.04
2022-11-21T04:07:12.824Z,2.03
2022-11-21T04:08:12.782Z,2.03
2022-11-21T04:09:12.773Z,2.00
2022-11-21T04:10:12.773Z,1.98
2022-11-21T04:11:12.745Z,1.97
2022-11-21T04:12:12.763Z,1.95
2022-11-21T04:13:12.733Z,1.93
2022-11-21T04:14:12.723Z,1.95
2022-11-21T04:15:14.041Z,1.92
2022-11-21T04:16:12.712Z,1.88
2022-11-21T04:17:12.682Z,1.85
2022-11-21T04:18:12.677Z,1.81
2022-11-21T04:19:12.671Z,1.81
2022-11-21T04:20:12.651Z,1.82
2022-11-21T04:21:12.661Z,1.82
2022-11-21T04:22:12.631Z,1.82
2022-11-21T04:23:12.622Z,1.85
2022-11-21T04:24:12.620Z,1.84
2022-11-21T04:25:12.601Z,1.84
2022-11-21T04:26:12.580Z,1.84
2022-11-21T04:27:12.582Z,1.84
2022-11-21T04:28:12.559Z,1.84
2022-11-21T04:29:12.553Z,1.84
2022-11-21T04:30:12.566Z,1.84
2022-11-21T04:31:12.569Z,1.85
2022-11-21T04:32:12.538Z,1.85
2022-11-21T04:33:12.522Z,1.85
2022-11-21T04:34:12.500Z,1.88
2022-11-21T04:35:12.493Z,1.85
2022-11-21T04:36:12.487Z,1.86
2022-11-21T04:37:12.494Z,1.85
2022-11-21T04:38:12.459Z,1.86
2022-11-21T04:39:12.464Z,1.88
2022-11-21T04:40:12.448Z,1.85
2022-11-21T04:41:12.428Z,1.85
2022-11-21T04:42:12.417Z,1.85
2022-11-21T04:43:12.485Z,1.85
2022-11-21T04:44:12.403Z,1.86
2022-11-21T04:45:12.406Z,1.84
2022-11-21T04:46:12.377Z,1.86
2022-11-21T04:47:12.404Z,1.85
2022-11-21T04:48:12.353Z,1.84
2022-11-21T04:49:12.399Z,1.86
2022-11-21T04:50:12.365Z,1.84
2022-11-21T04:51:12.326Z,1.84
2022-11-21T04:52:12.316Z,1.81
2022-11-21T04:53:12.307Z,1.82
2022-11-21T04:54:12.296Z,1.82
2022-11-21T04:55:12.298Z,1.79
2022-11-21T04:56:12.276Z,1.81
2022-11-21T04:57:12.264Z,1.76
2022-11-21T04:58:12.254Z,1.78
2022-11-21T04:59:12.244Z,1.76
2022-11-21T05:00:12.251Z,1.76
2022-11-21T05:01:12.333Z,1.71
2022-11-21T05:02:12.215Z,1.68
2022-11-21T05:03:12.207Z,1.66
2022-11-21T05:04:12.207Z,1.66
2022-11-21T05:05:12.236Z,1.67
2022-11-21T05:06:12.195Z,1.67
2022-11-21T05:07:12.210Z,1.68
2022-11-21T05:08:12.150Z,1.71
2022-11-21T05:09:12.124Z,1.70
2022-11-21T05:10:12.122Z,1.66
2022-11-21T05:11:12.120Z,1.68
2022-11-21T05:12:12.113Z,1.70
2022-11-21T05:13:12.093Z,1.68
2022-11-21T05:14:12.084Z,1.71
2022-11-21T05:15:12.089Z,1.74
2022-11-21T05:16:12.074Z,1.70
2022-11-21T05:17:12.059Z,1.70
2022-11-21T05:18:12.069Z,1.74
2022-11-21T05:19:12.423Z,1.74
2022-11-21T05:20:12.062Z,1.71
2022-11-21T05:21:12.010Z,1.70
2022-11-21T05:22:12.037Z,1.71
2022-11-21T05:23:11.980Z,1.76
2022-11-21T05:24:11.989Z,1.79
2022-11-21T05:25:11.970Z,1.78
2022-11-21T05:26:12.005Z,1.76
2022-11-21T05:27:11.941Z,1.79
2022-11-21T05:28:11.949Z,1.81
2022-11-21T05:29:11.959Z,1.81
2022-11-21T05:30:11.911Z,1.82
2022-11-21T05:31:12.002Z,1.82
2022-11-21T05:32:11.910Z,1.81
2022-11-21T05:33:11.890Z,1.81
2022-11-21T05:34:11.871Z,1.82
2022-11-21T05:35:11.912Z,1.82
2022-11-21T05:36:11.862Z,1.81
2022-11-21T05:37:11.848Z,1.82
2022-11-21T05:38:11.830Z,1.78
2022-11-21T05:39:11.809Z,1.82
2022-11-21T05:40:11.831Z,1.82
2022-11-21T05:41:11.832Z,1.84
2022-11-21T05:42:11.809Z,1.81
2022-11-21T05:43:11.769Z,1.82
2022-11-21T05:44:11.889Z,1.84
2022-11-21T05:45:11.747Z,1.81
2022-11-21T05:46:11.759Z,1.85
2022-11-21T05:47:11.758Z,1.86
2022-11-21T05:48:11.775Z,1.86
2022-11-21T05:49:11.713Z,1.86
2022-11-21T05:50:11.701Z,1.88
2022-11-21T05:51:11.704Z,1.85
2022-11-21T05:52:11.683Z,1.86
2022-11-21T05:53:11.657Z,1.85
2022-11-21T05:54:11.715Z,1.86
2022-11-21T05:55:11.673Z,1.85
2022-11-21T05:56:11.646Z,1.85
2022-11-21T05:57:11.617Z,1.84
2022-11-21T05:58:11.624Z,1.84
2022-11-21T05:59:11.627Z,1.82
2022-11-21T06:00:11.595Z,1.84
2022-11-21T06:01:11.596Z,1.81
2022-11-21T06:02:11.598Z,1.84
2022-11-21T06:03:11.676Z,1.85
2022-11-21T06:04:11.563Z,1.85
2022-11-21T06:05:11.535Z,1.84
2022-11-21T06:06:11.582Z,1.85
2022-11-21T06:07:11.551Z,1.86
2022-11-21T06:08:11.503Z,1.86
2022-11-21T06:09:11.492Z,1.86
2022-11-21T06:10:11.505Z,1.88
2022-11-21T06:11:11.482Z,1.85
2022-11-21T06:12:11.525Z,1.86
2022-11-21T06:13:11.453Z,1.88
2022-11-21T06:14:11.479Z,1.86
2022-11-21T06:15:11.468Z,1.85
2022-11-21T06:16:11.435Z,1.85
2022-11-21T06:17:11.449Z,1.84
2022-11-21T06:18:11.400Z,1.86
2022-11-21T06:19:11.393Z,1.85
2022-11-21T06:20:11.405Z,1.85
2022-11-21T06:21:11.384Z,1.88
2022-11-21T06:22:11.359Z,1.88
2022-11-21T06:23:11.315Z,1.89
2022-11-21T06:24:11.291Z,1.89
2022-11-21T06:25:11.341Z,1.88
2022-11-21T06:26:11.308Z,1.89
2022-11-21T06:27:11.270Z,1.86
2022-11-21T06:28:11.253Z,1.88
2022-11-21T06:29:11.248Z,1.88
2022-11-21T06:30:11.232Z,1.88
2022-11-21T06:31:11.239Z,1.89
2022-11-21T06:32:11.221Z,1.88
2022-11-21T06:33:11.203Z,1.89
2022-11-21T06:34:11.192Z,1.89
2022-11-21T06:35:11.183Z,1.89
2022-11-21T06:36:11.187Z,1.89
2022-11-21T06:37:11.178Z,1.88
2022-11-21T06:38:11.148Z,1.92
2022-11-21T06:39:11.179Z,1.88
2022-11-21T06:40:11.120Z,1.89
2022-11-21T06:41:11.144Z,1.89
2022-11-21T06:42:11.115Z,1.88
2022-11-21T06:43:11.089Z,1.89
2022-11-21T06:44:11.079Z,1.89
2022-11-21T06:45:11.087Z,1.86
2022-11-21T06:46:11.062Z,1.93
2022-11-21T06:47:11.066Z,1.93
2022-11-21T06:48:11.060Z,1.92
2022-11-21T06:49:11.058Z,1.92
2022-11-21T06:50:11.117Z,1.92
2022-11-21T06:51:11.006Z,1.92
2022-11-21T06:52:10.999Z,1.89
2022-11-21T06:53:10.995Z,1.93
2022-11-21T06:54:15.229Z,1.92
2022-11-21T06:55:11.956Z,1.93
2022-11-21T06:56:11.014Z,1.95
2022-11-21T06:57:10.946Z,1.97
2022-11-21T06:58:10.930Z,1.95
2022-11-21T06:59:10.937Z,1.95
2022-11-21T07:00:10.930Z,1.95
2022-11-21T07:01:10.986Z,1.97
2022-11-21T07:02:10.905Z,1.98
2022-11-21T07:03:10.874Z,2.00
2022-11-21T07:04:10.872Z,2.00
2022-11-21T07:05:10.955Z,1.97
2022-11-21T07:06:10.964Z,1.97
2022-11-21T07:07:10.880Z,1.98
2022-11-21T07:08:13.500Z,2.00
2022-11-21T07:09:32.069Z,2.00
2022-11-21T07:10:11.824Z,2.01
2022-11-21T07:11:24.669Z,2.00
2022-11-21T07:12:11.792Z,2.03
2022-11-21T07:13:10.774Z,2.00
2022-11-21T07:14:10.862Z,2.03
2022-11-21T07:15:10.745Z,2.01
2022-11-21T07:16:10.744Z,2.01
2022-11-21T07:17:10.731Z,2.03
2022-11-21T07:18:10.785Z,2.04
2022-11-21T07:19:10.741Z,2.04
2022-11-21T07:20:10.722Z,2.05
2022-11-21T07:21:10.687Z,2.07
2022-11-21T07:22:10.690Z,2.04
2022-11-21T07:23:10.722Z,2.05
2022-11-21T07:24:10.665Z,2.08
2022-11-21T07:25:10.644Z,2.10
2022-11-21T07:26:10.706Z,2.12
2022-11-21T07:27:11.183Z,2.15
2022-11-21T07:28:10.889Z,2.15
2022-11-21T07:29:10.621Z,2.16
2022-11-21T07:30:10.604Z,2.16
2022-11-21T07:31:13.787Z,2.16
2022-11-21T07:32:10.580Z,2.18
2022-11-21T07:33:10.631Z,2.19
2022-11-21T07:34:10.573Z,2.21
2022-11-21T07:35:10.558Z,2.22
2022-11-21T07:36:10.590Z,2.22
2022-11-21T07:37:10.538Z,2.22
2022-11-21T07:38:10.547Z,2.22
2022-11-21T07:39:10.575Z,2.25
2022-11-21T07:40:10.499Z,2.28
2022-11-21T07:41:10.501Z,2.26
2022-11-21T07:42:10.498Z,2.32
2022-11-21T07:43:11.084Z,2.32
2022-11-21T07:44:10.466Z,2.33
2022-11-21T07:45:10.450Z,2.34
2022-11-21T07:46:10.447Z,2.39
2022-11-21T07:47:10.412Z,2.34
2022-11-21T07:48:10.421Z,2.36
2022-11-21T07:49:10.433Z,2.36
2022-11-21T07:50:10.417Z,2.36
2022-11-21T07:51:10.376Z,2.33
2022-11-21T07:52:10.367Z,2.37
2022-11-21T07:53:10.366Z,2.33
2022-11-21T07:54:10.340Z,2.33
2022-11-21T07:55:10.336Z,2.36
2022-11-21T07:56:10.315Z,2.39
2022-11-21T07:57:10.317Z,2.44
2022-11-21T07:58:10.334Z,2.46
2022-11-21T07:59:10.291Z,2.50
2022-11-21T08:00:10.300Z,2.52
2022-11-21T08:01:10.303Z,2.52
2022-11-21T08:02:10.293Z,2.54
2022-11-21T08:03:10.265Z,2.55
2022-11-21T08:04:10.261Z,2.57
2022-11-21T08:05:10.235Z,2.58
2022-11-21T08:06:10.317Z,2.57
2022-11-21T08:07:10.291Z,2.61
2022-11-21T08:08:10.203Z,2.62
2022-11-21T08:09:10.205Z,2.64
2022-11-21T08:10:10.287Z,2.69
2022-11-21T08:11:10.167Z,2.72
2022-11-21T08:12:10.155Z,2.73
2022-11-21T08:13:10.163Z,2.72
2022-11-21T08:14:10.203Z,2.75
2022-11-21T08:15:10.143Z,2.72
2022-11-21T08:16:10.117Z,2.73
2022-11-21T08:17:10.118Z,2.75
2022-11-21T08:18:10.142Z,2.76
2022-11-21T08:19:10.101Z,2.79
2022-11-21T08:20:10.100Z,2.79
2022-11-21T08:21:10.062Z,2.82
2022-11-21T08:22:10.059Z,2.82
2022-11-21T08:23:10.061Z,2.87
2022-11-21T08:24:10.061Z,2.87
2022-11-21T08:25:10.028Z,2.88
2022-11-21T08:26:10.028Z,2.90
2022-11-21T08:27:10.089Z,2.88
2022-11-21T08:28:09.992Z,2.93
2022-11-21T08:29:09.998Z,2.93
2022-11-21T08:30:09.970Z,2.95
2022-11-21T08:31:09.970Z,2.95
2022-11-21T08:32:09.959Z,3.03
2022-11-21T08:33:09.966Z,3.08
2022-11-21T08:34:14.260Z,3.12
2022-11-21T08:35:09.911Z,3.15
2022-11-21T08:36:09.919Z,3.16
2022-11-21T08:37:09.932Z,3.19
2022-11-21T08:38:09.892Z,3.24
2022-11-21T08:39:09.942Z,3.26
2022-11-21T08:40:09.908Z,3.30
2022-11-21T08:41:13.443Z,3.34
2022-11-21T08:42:10.850Z,3.37
2022-11-21T08:43:09.893Z,3.40
2022-11-21T08:44:13.895Z,3.41
2022-11-21T08:45:09.817Z,3.41
2022-11-21T08:46:09.817Z,3.40
2022-11-21T08:47:09.816Z,3.37
2022-11-21T08:48:09.790Z,3.41
2022-11-21T08:49:09.788Z,3.45
2022-11-21T08:50:09.758Z,3.48
2022-11-21T08:51:09.791Z,3.49
2022-11-21T08:52:09.989Z,3.50
2022-11-21T08:53:09.740Z,3.52
2022-11-21T08:54:09.778Z,3.56
2022-11-21T08:55:09.709Z,3.59
2022-11-21T08:56:09.698Z,3.59
2022-11-21T08:57:09.699Z,3.58
2022-11-21T08:58:09.708Z,3.64
2022-11-21T08:59:09.727Z,3.73
2022-11-21T09:00:09.680Z,3.81
2022-11-21T09:01:09.646Z,3.82
2022-11-21T09:02:09.713Z,3.88
2022-11-21T09:03:09.617Z,3.88
2022-11-21T09:04:09.626Z,3.95
2022-11-21T09:05:09.597Z,3.95
2022-11-21T09:06:09.584Z,3.99
2022-11-21T09:07:09.640Z,3.99
2022-11-21T09:08:09.607Z,3.99
2022-11-21T09:09:09.565Z,4.06
2022-11-21T09:10:09.551Z,4.12
2022-11-21T09:11:09.574Z,4.14
2022-11-21T09:12:09.524Z,4.16
2022-11-21T09:13:09.514Z,4.20
2022-11-21T09:14:09.547Z,4.22
2022-11-21T09:15:09.493Z,4.31
2022-11-21T09:16:09.494Z,4.27
2022-11-21T09:17:09.479Z,4.28
2022-11-21T09:18:10.457Z,4.25
2022-11-21T09:19:09.476Z,4.30
2022-11-21T09:20:09.600Z,4.38
2022-11-21T09:21:09.423Z,4.38
2022-11-21T09:22:09.436Z,4.43
2022-11-21T09:23:09.421Z,4.45
2022-11-21T09:24:09.392Z,4.52
2022-11-21T09:25:09.411Z,4.53
2022-11-21T09:26:09.401Z,4.52
2022-11-21T09:27:09.385Z,4.43
2022-11-21T09:28:09.362Z,4.28
2022-11-21T09:29:09.373Z,4.20
2022-11-21T09:30:09.370Z,4.20
2022-11-21T09:31:09.353Z,4.21
2022-11-21T09:32:09.424Z,4.27
2022-11-21T09:33:09.307Z,4.27
2022-11-21T09:34:09.301Z,4.24
2022-11-21T09:35:09.280Z,4.18
2022-11-21T09:36:09.288Z,4.21
2022-11-21T09:37:09.251Z,4.20
2022-11-21T09:38:09.279Z,4.20
2022-11-21T09:39:09.242Z,4.20
2022-11-21T09:40:09.228Z,4.21
2022-11-21T09:41:09.214Z,4.20
2022-11-21T09:42:09.320Z,4.21
2022-11-21T09:43:09.254Z,4.21
2022-11-21T09:44:09.180Z,4.21
2022-11-21T09:45:09.189Z,4.20
2022-11-21T09:46:09.158Z,4.22
2022-11-21T09:47:09.149Z,4.18
2022-11-21T09:48:09.146Z,4.18
2022-11-21T09:49:09.131Z,4.18
2022-11-21T09:50:09.161Z,4.13
2022-11-21T09:51:09.130Z,4.14
2022-11-21T09:52:09.115Z,4.10
2022-11-21T09:53:09.129Z,4.12
2022-11-21T09:54:09.078Z,4.09
2022-11-21T09:55:09.072Z,4.09
2022-11-21T09:56:09.058Z,4.10
2022-11-21T09:57:09.041Z,4.09
2022-11-21T09:58:09.027Z,4.10
2022-11-21T09:59:09.072Z,4.10
2022-11-21T10:00:09.055Z,4.09
2022-11-21T10:01:09.050Z,4.06
2022-11-21T10:02:08.994Z,4.14
2022-11-21T10:03:08.986Z,4.14
2022-11-21T10:04:08.959Z,4.21
2022-11-21T10:05:08.976Z,4.27
2022-11-21T10:06:08.948Z,4.28
2022-11-21T10:07:08.989Z,4.32
2022-11-21T10:08:08.913Z,4.34
2022-11-21T10:09:08.921Z,4.34
2022-11-21T10:10:08.912Z,4.39
2022-11-21T10:11:17.872Z,4.42
2022-11-21T10:12:09.893Z,4.50
2022-11-21T10:13:08.865Z,4.52
2022-11-21T10:14:08.854Z,4.63
2022-11-21T10:15:08.864Z,4.67
2022-11-21T10:16:08.834Z,4.68
2022-11-21T10:17:08.826Z,4.71
2022-11-21T10:18:08.906Z,4.74
2022-11-21T10:19:08.840Z,4.68
2022-11-21T10:20:08.792Z,4.66
2022-11-21T10:21:08.802Z,4.61
2022-11-21T10:22:08.774Z,4.57
2022-11-21T10:23:08.771Z,4.58
2022-11-21T10:24:08.747Z,4.56
2022-11-21T10:25:08.742Z,4.53
2022-11-21T10:26:08.731Z,4.57
2022-11-21T10:27:08.711Z,4.58
2022-11-21T10:28:08.724Z,4.58
2022-11-21T10:29:08.702Z,4.56
2022-11-21T10:30:08.707Z,4.57
2022-11-21T10:31:08.691Z,4.58
2022-11-21T10:32:08.670Z,4.63
2022-11-21T10:33:08.656Z,4.61
2022-11-21T10:34:08.630Z,4.61
2022-11-21T10:35:08.622Z,4.63
2022-11-21T10:36:08.690Z,4.67
2022-11-21T10:37:11.776Z,4.64
2022-11-21T10:38:08.597Z,4.64
2022-11-21T10:39:08.590Z,4.67
2022-11-21T10:40:08.572Z,4.66
2022-11-21T10:41:08.610Z,4.67
2022-11-21T10:42:08.569Z,4.75
2022-11-21T10:43:08.551Z,4.71
2022-11-21T10:44:08.539Z,4.74
2022-11-21T10:45:08.519Z,4.75
2022-11-21T10:46:08.535Z,4.78
2022-11-21T10:47:08.506Z,4.84
2022-11-21T10:48:08.505Z,4.89
2022-11-21T10:49:08.509Z,4.94
2022-11-21T10:50:08.466Z,4.97
2022-11-21T10:51:08.477Z,4.97
2022-11-21T10:52:08.445Z,5.01
2022-11-21T10:53:08.485Z,5.08
2022-11-21T10:54:08.425Z,5.19
2022-11-21T10:55:08.460Z,5.23
2022-11-21T10:56:08.423Z,5.29
2022-11-21T10:57:08.402Z,5.41
2022-11-21T10:58:08.385Z,5.54
2022-11-21T10:59:08.368Z,5.69
2022-11-21T11:00:08.367Z,5.87
2022-11-21T11:01:08.395Z,5.98
2022-11-21T11:02:08.328Z,6.12
2022-11-21T11:03:08.340Z,6.12
2022-11-21T11:04:26.661Z,6.10
2022-11-21T11:05:09.326Z,6.07
2022-11-21T11:06:08.313Z,6.15
2022-11-21T11:07:08.350Z,6.15
2022-11-21T11:08:08.265Z,6.16
2022-11-21T11:09:08.261Z,6.15
2022-11-21T11:10:08.241Z,6.19
2022-11-21T11:11:08.238Z,6.31
2022-11-21T11:12:08.239Z,6.34
2022-11-21T11:13:30.763Z,6.39
2022-11-21T11:14:09.195Z,6.49
2022-11-21T11:15:08.205Z,6.52
2022-11-21T11:16:08.223Z,6.49
2022-11-21T11:17:08.184Z,6.34
2022-11-21T11:18:09.766Z,6.36
2022-11-21T11:19:08.166Z,6.39
2022-11-21T11:20:08.184Z,6.39
2022-11-21T11:21:08.123Z,6.34
2022-11-21T11:22:08.134Z,6.36
2022-11-21T11:23:08.133Z,6.38
2022-11-21T11:24:08.159Z,6.35
2022-11-21T11:25:08.150Z,6.32
2022-11-21T11:26:08.118Z,6.34
2022-11-21T11:27:08.104Z,6.29
2022-11-21T11:28:08.113Z,6.20
2022-11-21T11:29:08.099Z,6.13
2022-11-21T11:30:08.069Z,6.05
2022-11-21T11:31:08.096Z,5.99
2022-11-21T11:32:08.074Z,5.91
2022-11-21T11:33:08.049Z,5.80
2022-11-21T11:34:08.022Z,5.77
2022-11-21T11:35:08.034Z,5.73
2022-11-21T11:36:08.012Z,5.69
2022-11-21T11:37:08.029Z,5.65
2022-11-21T11:38:07.983Z,5.65
2022-11-21T11:39:08.029Z,5.61
2022-11-21T11:40:08.020Z,5.61
2022-11-21T11:41:07.953Z,5.56
2022-11-21T11:42:10.291Z,5.54
2022-11-21T11:43:08.950Z,5.52
2022-11-21T11:44:07.921Z,5.47
2022-11-21T11:45:07.890Z,5.43
2022-11-21T11:46:07.900Z,5.43
2022-11-21T11:47:07.890Z,5.44
2022-11-21T11:48:07.870Z,5.46
2022-11-21T11:49:23.200Z,5.51
2022-11-21T11:50:08.841Z,5.51
2022-11-21T11:51:07.856Z,5.47
2022-11-21T11:52:07.839Z,5.51
2022-11-21T11:53:07.820Z,5.58
2022-11-21T11:54:07.841Z,5.64
2022-11-21T11:55:07.828Z,5.72
2022-11-21T11:56:07.809Z,5.80
2022-11-21T11:57:07.804Z,5.84
2022-11-21T11:58:07.769Z,5.91
2022-11-21T11:59:07.761Z,5.98
2022-11-21T12:00:07.780Z,6.06
2022-11-21T12:01:07.765Z,6.10
2022-11-21T12:02:11.841Z,6.13
2022-11-21T12:03:07.751Z,6.17
2022-11-21T12:04:07.717Z,6.19
2022-11-21T12:05:07.747Z,6.16
2022-11-21T12:06:09.420Z,6.19
2022-11-21T12:09:08.756Z,6.34
2022-11-21T12:10:07.621Z,6.32
2022-11-21T12:11:07.601Z,6.35
2022-11-21T12:12:07.578Z,6.41
2022-11-21T12:13:07.647Z,6.41
2022-11-21T12:14:07.568Z,6.49
2022-11-21T12:15:07.601Z,6.60
2022-11-21T12:16:13.206Z,6.74
2022-11-21T12:17:08.536Z,6.80
2022-11-21T12:18:07.531Z,6.93
2022-11-21T12:19:07.576Z,7.04
2022-11-21T12:20:07.497Z,7.03
2022-11-21T12:21:07.500Z,6.97
2022-11-21T12:22:07.508Z,6.97
2022-11-21T12:23:07.486Z,7.00
2022-11-21T12:24:07.460Z,6.92
2022-11-21T12:25:07.480Z,6.83
2022-11-21T12:26:07.427Z,6.74
2022-11-21T12:27:07.451Z,6.67
2022-11-21T12:28:07.430Z,6.64
2022-11-21T12:29:07.435Z,6.53
2022-11-21T12:30:07.388Z,6.46
2022-11-21T12:31:07.410Z,6.39
2022-11-21T12:32:07.376Z,6.34
2022-11-21T12:33:09.210Z,6.29
2022-11-21T12:34:07.361Z,6.28
2022-11-21T12:35:07.344Z,6.19
2022-11-21T12:36:17.435Z,6.22
2022-11-21T12:37:08.326Z,6.22
2022-11-21T12:38:07.379Z,6.17
2022-11-21T12:39:07.301Z,6.13
2022-11-21T12:40:07.284Z,6.07
2022-11-21T12:41:07.285Z,6.10
2022-11-21T12:42:07.286Z,6.05
2022-11-21T12:43:07.294Z,6.06
2022-11-21T12:44:07.267Z,6.07
2022-11-21T12:45:07.247Z,6.05
2022-11-21T12:46:07.228Z,6.09
2022-11-21T12:47:07.214Z,6.06
2022-11-21T12:48:07.252Z,6.07
2022-11-21T12:49:07.192Z,6.05
2022-11-21T12:50:07.213Z,6.05
2022-11-21T12:51:07.181Z,6.05
2022-11-21T12:52:07.166Z,6.07
2022-11-21T12:53:07.162Z,6.09
2022-11-21T12:54:07.136Z,6.07
2022-11-21T12:55:07.138Z,6.13
2022-11-21T12:56:07.118Z,6.17
2022-11-21T12:57:07.109Z,6.25
2022-11-21T12:58:07.102Z,6.29
2022-11-21T12:59:07.099Z,6.32
2022-11-21T13:00:07.086Z,6.34
2022-11-21T13:01:07.150Z,6.31
2022-11-21T13:02:07.060Z,6.32
2022-11-21T13:03:07.782Z,6.29
2022-11-21T13:04:07.031Z,6.31
2022-11-21T13:05:07.044Z,6.31
2022-11-21T13:06:07.025Z,6.34
2022-11-21T13:07:07.037Z,6.36
2022-11-21T13:08:07.044Z,6.38
2022-11-21T13:09:06.986Z,6.39
2022-11-21T13:10:06.970Z,6.36
2022-11-21T13:11:06.968Z,6.38
2022-11-21T13:12:06.988Z,6.43
2022-11-21T13:13:06.987Z,6.41
2022-11-21T13:14:06.922Z,6.44
2022-11-21T13:15:06.936Z,6.52
2022-11-21T13:16:07.774Z,6.56
2022-11-21T13:17:06.902Z,6.53
2022-11-21T13:18:06.903Z,6.54
2022-11-21T13:19:06.880Z,6.53
2022-11-21T13:20:06.874Z,6.53